MET'MAP v2.0
soon released !

Expected late october,
this new version will be
more efficient, smarter,
and hosted on a brand new
server x3 powerfull...
...and still free !


Not compatible ?
Try the mobile version !

LOG IN : | Subscribe | Disclaimer | Who is Orbifly ? |
ICAO code :
Legend : VFR Marginal VFR IFR Intensive IFR Very Intensive IFR
Visi :
Ceiling :
>= 8 km
>= 3000ft
5 to 8 km
1000 to 3000 ft
1500m to 5 km
500 to 1000 ft
800 to 1500m
200 to 500 ft
< 800m
< 200 ft

METAR - LEMO Sevilla Moron - 27 May 2020 05:55 UTC - Data Source NOAA   


- Airport Elevation : 285 ft
- IATA code : OZP
- No reported NOTAMs.


LEMO - Sevilla Moron

Latest METAR recorded : 2015/08/11 08:00 LEMO 110800Z 24004KT 200V280 8000 NSC 26/20 Q1015 NOSIG
TAF TAF LEMO
Valid from the 27 at 03:00 until the 27 at 12:00 UTC


270200Z 2703/2712 VRB03KT CAVOK
BECMG 2703/2706 10010KT

Source NOAA


MET'MAP, your aeronautical weather chart ! - Copyright ORBIFLY December 2007

Programming & Development : Alexandra Zaïnal
Co-Developer : Marc-Olivier Méhu
Technical & hardware support : Manuel Goepfert
Concept & Financing : Baudouin d'Aumeries